Terminal Aerodrome Forecast
Issued by NWS

Current Version | Previous Version | Graphics & Text | Print | Product List | Glossary On
Versions: 1 2 3 4 5 6 7 8 9 10 11 12 13 14 15 16 17 18 19 20 21 22 23 24 25 26 27
000
FTUS41 KRLX 221100
TAFCKB
TAF
KCKB 221129Z 2212/2312 VRB03KT 6SM HZ FEW045
     FM221300 VRB03KT P6SM SKC
     FM221600 23005KT P6SM SCT045
     FM230000 19004KT P6SM SCT050=

USA.gov is the U.S. government's official web portal to all federal, state and local government web resources and services.